Terminal Aerodrome Forecast
Issued by NWS Billings, MT

Home | Current Version | Previous Version | Text Only | Print | Product List | Glossary On
Versions: 1 2 3 4 5 6 7 8 9 10 11 12
000
FTUS45 KBYZ 281729
TAFMLS
TAF
KMLS 281729Z 2818/2918 32015G25KT P6SM VCSH SCT030 BKN070
     FM282200 30011KT P6SM BKN050 BKN100
     FM290900 25011KT P6SM BKN100=

USA.gov is the U.S. government's official web portal to all federal, state and local government web resources and services.